Time;durP1;ratioP1;P1;durP2;ratioP2;P2;SDS_P1;SDS_P2;PMS_P1;PMS_P2;Temp;Humidity;BMP_temperature;BMP_pressure;BME280_temperature;BME280_humidity;BME280_pressure;Samples;Min_cycle;Max_cycle;Signal;HPM_P1;HPM_P2
2021/04/27 00:01:00;;;;;;;21.80;11.00;;;;;;;;;;757256;182;944272;-73
2021/04/27 00:03:26;;;;;;;28.50;12.57;;;;;;;;;;755883;181;945600;-76
2021/04/27 00:05:52;;;;;;;31.00;11.77;;;;;;;;;;761074;183;919156;-74
2021/04/27 00:08:18;;;;;;;22.57;12.53;;;;;;;;;;755168;182;919480;-74
2021/04/27 00:10:44;;;;;;;37.17;14.40;;;;;;;;;;752804;181;919257;-75
2021/04/27 00:13:10;;;;;;;30.73;13.00;;;;;;;;;;747526;185;919292;-75
2021/04/27 00:15:35;;;;;;;29.07;11.60;;;;;;;;;;750979;182;917129;-73
2021/04/27 00:18:01;;;;;;;24.35;11.50;;;;;;;;;;759096;182;941764;-76
2021/04/27 00:20:27;;;;;;;20.63;11.30;;;;;;;;;;738848;185;917720;-72
2021/04/27 00:22:53;;;;;;;26.53;11.60;;;;;;;;;;742297;186;917192;-73
2021/04/27 00:25:19;;;;;;;25.77;11.43;;;;;;;;;;743185;186;933412;-76
2021/04/27 00:27:48;;;;;;;23.93;11.07;;;;;;;;;;754501;182;920168;-73
2021/04/27 00:30:11;;;;;;;22.90;11.80;;;;;;;;;;758693;181;938467;-74
2021/04/27 00:32:37;;;;;;;33.50;11.83;;;;;;;;;;746139;182;944938;-76
2021/04/27 00:35:03;;;;;;;23.97;12.53;;;;;;;;;;738339;186;1013391;-73
2021/04/27 00:37:29;;;;;;;25.67;10.97;;;;;;;;;;747543;185;915233;-75
2021/04/27 00:39:55;;;;;;;22.73;11.30;;;;;;;;;;757791;180;865778;-75
2021/04/27 00:42:27;;;;;;;27.27;12.80;;;;;;;;;;755810;182;623130;-75
2021/04/27 00:44:55;;;;;;;33.43;13.83;;;;;;;;;;755884;182;918250;-73
2021/04/27 00:47:21;;;;;;;22.17;12.07;;;;;;;;;;764196;182;632622;-74
2021/04/27 00:49:47;;;;;;;22.40;10.57;;;;;;;;;;756128;182;916987;-76
2021/04/27 00:52:12;;;;;;;23.00;11.87;;;;;;;;;;751146;182;1022264;-77
2021/04/27 00:54:38;;;;;;;29.65;12.55;;;;;;;;;;744178;186;918597;-73
2021/04/27 00:57:05;;;;;;;28.77;12.30;;;;;;;;;;744408;186;917925;-75
2021/04/27 00:59:30;;;;;;;18.60;10.80;;;;;;;;;;741567;186;919029;-76
2021/04/27 01:01:56;;;;;;;25.87;13.23;;;;;;;;;;743897;182;919285;-75
2021/04/27 01:04:22;;;;;;;29.03;13.90;;;;;;;;;;753491;182;919494;-75
2021/04/27 01:06:49;;;;;;;28.57;12.87;;;;;;;;;;743537;185;915973;-74
2021/04/27 01:09:16;;;;;;;27.17;13.83;;;;;;;;;;742824;186;919802;-77
2021/04/27 01:11:43;;;;;;;31.20;13.53;;;;;;;;;;742223;186;1449543;-75
2021/04/27 01:14:10;;;;;;;24.13;11.10;;;;;;;;;;756356;182;920076;-75
2021/04/27 01:16:36;;;;;;;23.57;11.30;;;;;;;;;;754186;182;916870;-76
2021/04/27 01:19:02;;;;;;;30.83;15.70;;;;;;;;;;757496;182;1021607;-75
2021/04/27 01:21:28;;;;;;;27.43;14.13;;;;;;;;;;750668;183;918830;-76
2021/04/27 01:24:11;;;;;;;30.83;15.37;;;;;;;;;;744349;185;919987;-73
2021/04/27 01:26:38;;;;;;;31.60;13.43;;;;;;;;;;734000;185;1149072;-74
2021/04/27 01:29:03;;;;;;;34.63;15.07;;;;;;;;;;739682;186;918779;-76
2021/04/27 01:31:29;;;;;;;31.53;16.23;;;;;;;;;;750720;185;920036;-76
2021/04/27 01:33:55;;;;;;;30.80;16.80;;;;;;;;;;741795;185;924708;-74
2021/04/27 01:36:21;;;;;;;37.37;15.57;;;;;;;;;;745695;185;917984;-75
2021/04/27 01:38:47;;;;;;;35.60;16.20;;;;;;;;;;749109;186;814709;-74
2021/04/27 01:41:12;;;;;;;34.27;15.40;;;;;;;;;;761037;182;629132;-76
2021/04/27 01:43:38;;;;;;;41.13;16.33;;;;;;;;;;758350;181;629307;-75
2021/04/27 01:46:05;;;;;;;32.08;15.65;;;;;;;;;;762277;182;918997;-75
2021/04/27 01:48:31;;;;;;;33.53;14.63;;;;;;;;;;750752;183;918684;-73
2021/04/27 01:50:56;;;;;;;37.33;14.90;;;;;;;;;;746872;182;920239;-74
2021/04/27 01:53:22;;;;;;;40.45;16.65;;;;;;;;;;740515;186;1020858;-74
2021/04/27 01:55:48;;;;;;;26.30;13.97;;;;;;;;;;752525;185;1022434;-73
2021/04/27 01:58:14;;;;;;;29.40;13.40;;;;;;;;;;746385;181;918940;-73
2021/04/27 02:00:40;;;;;;;37.07;18.30;;;;;;;;;;750951;181;918804;-72
2021/04/27 02:03:06;;;;;;;33.20;14.47;;;;;;;;;;761180;181;919011;-74
2021/04/27 02:05:31;;;;;;;32.50;15.60;;;;;;;;;;755276;183;626918;-74
2021/04/27 02:07:57;;;;;;;31.50;16.07;;;;;;;;;;751008;182;919377;-72
2021/04/27 02:10:23;;;;;;;34.17;15.40;;;;;;;;;;760354;182;919350;-75
2021/04/27 02:12:50;;;;;;;31.93;14.73;;;;;;;;;;750606;186;628497;-74
2021/04/27 02:15:15;;;;;;;28.53;15.67;;;;;;;;;;752402;182;919207;-73
2021/04/27 02:17:41;;;;;;;35.73;14.43;;;;;;;;;;751313;184;918987;-72
2021/04/27 02:20:07;;;;;;;31.73;16.50;;;;;;;;;;755059;183;935859;-73
2021/04/27 02:22:33;;;;;;;35.13;14.93;;;;;;;;;;756483;182;919561;-74
2021/04/27 02:24:59;;;;;;;23.40;13.40;;;;;;;;;;745122;182;960310;-72
2021/04/27 02:27:25;;;;;;;30.77;14.93;;;;;;;;;;759397;182;917248;-73
2021/04/27 02:29:50;;;;;;;31.80;14.70;;;;;;;;;;755101;182;1021672;-72
2021/04/27 02:32:16;;;;;;;30.57;14.20;;;;;;;;;;755067;183;919250;-74
2021/04/27 02:34:42;;;;;;;32.73;15.90;;;;;;;;;;758462;182;628359;-75
2021/04/27 02:37:08;;;;;;;35.03;16.80;;;;;;;;;;755656;182;636429;-74
2021/04/27 02:39:34;;;;;;;30.43;15.87;;;;;;;;;;759304;181;1781727;-74
2021/04/27 02:42:00;;;;;;;25.83;14.60;;;;;;;;;;756391;182;919471;-72
2021/04/27 02:44:26;;;;;;;28.20;14.53;;;;;;;;;;754910;183;918981;-74
2021/04/27 02:46:51;;;;;;;27.67;14.00;;;;;;;;;;742651;185;925535;-73
2021/04/27 02:49:17;;;;;;;28.40;14.30;;;;;;;;;;738088;186;919662;-73
2021/04/27 02:51:43;;;;;;;41.63;15.70;;;;;;;;;;745459;185;913892;-72
2021/04/27 02:54:09;;;;;;;28.37;15.40;;;;;;;;;;742065;185;921080;-72
2021/04/27 02:56:35;;;;;;;36.67;16.30;;;;;;;;;;748792;182;921106;-73
2021/04/27 02:59:01;;;;;;;34.67;14.90;;;;;;;;;;757251;181;918642;-72
2021/04/27 03:01:26;;;;;;;35.30;16.85;;;;;;;;;;755707;182;919859;-72
2021/04/27 03:03:52;;;;;;;39.60;17.33;;;;;;;;;;757565;182;916548;-72
2021/04/27 03:06:18;;;;;;;32.27;16.33;;;;;;;;;;758603;182;1106578;-72
2021/04/27 03:08:44;;;;;;;33.53;17.03;;;;;;;;;;754658;182;919618;-72
2021/04/27 03:11:10;;;;;;;37.75;15.20;;;;;;;;;;758065;182;919212;-72
2021/04/27 03:13:36;;;;;;;31.40;15.77;;;;;;;;;;743049;186;1021712;-71
2021/04/27 03:16:01;;;;;;;42.97;16.27;;;;;;;;;;761337;181;942272;-72
2021/04/27 03:18:28;;;;;;;35.43;15.17;;;;;;;;;;753690;182;1012838;-72
2021/04/27 03:20:54;;;;;;;35.53;16.40;;;;;;;;;;753725;182;924656;-73
2021/04/27 03:23:22;;;;;;;34.37;16.93;;;;;;;;;;757564;182;916743;-70
2021/04/27 03:25:46;;;;;;;29.37;14.60;;;;;;;;;;756374;182;922461;-72
2021/04/27 03:28:12;;;;;;;34.50;15.70;;;;;;;;;;751367;181;884475;-72
2021/04/27 03:30:38;;;;;;;31.40;16.20;;;;;;;;;;759844;183;916754;-71
2021/04/27 03:33:03;;;;;;;39.43;18.50;;;;;;;;;;752535;181;918590;-72
2021/04/27 03:35:29;;;;;;;44.10;17.08;;;;;;;;;;750480;182;919539;-70
2021/04/27 03:37:55;;;;;;;50.73;23.73;;;;;;;;;;753552;181;918955;-71
2021/04/27 03:40:21;;;;;;;48.10;18.03;;;;;;;;;;755382;183;919111;-71
2021/04/27 03:42:47;;;;;;;30.57;16.53;;;;;;;;;;746734;182;919339;-71
2021/04/27 03:45:14;;;;;;;41.20;21.57;;;;;;;;;;741722;186;918919;-72
2021/04/27 03:47:39;;;;;;;48.73;24.77;;;;;;;;;;757423;182;872757;-71
2021/04/27 03:50:06;;;;;;;30.53;16.37;;;;;;;;;;758778;182;943488;-71
2021/04/27 03:52:32;;;;;;;29.35;15.45;;;;;;;;;;753709;182;1020788;-71
2021/04/27 03:54:57;;;;;;;40.53;15.63;;;;;;;;;;759794;182;919051;-72
2021/04/27 03:57:24;;;;;;;28.67;15.77;;;;;;;;;;750468;182;1020413;-71
2021/04/27 03:59:50;;;;;;;27.03;14.40;;;;;;;;;;753222;182;919392;-72
2021/04/27 04:02:16;;;;;;;49.03;16.67;;;;;;;;;;753518;181;919666;-72
2021/04/27 04:04:41;;;;;;;49.83;16.07;;;;;;;;;;751779;183;918364;-70
2021/04/27 04:07:07;;;;;;;35.63;13.57;;;;;;;;;;749719;185;918478;-71
2021/04/27 04:09:33;;;;;;;25.77;15.77;;;;;;;;;;738032;186;919445;-71
2021/04/27 04:11:59;;;;;;;40.10;18.63;;;;;;;;;;751344;185;919655;-71
2021/04/27 04:14:25;;;;;;;29.50;15.77;;;;;;;;;;741585;185;919303;-71
2021/04/27 04:16:51;;;;;;;29.40;15.17;;;;;;;;;;746744;185;918811;-73
2021/04/27 04:19:17;;;;;;;26.73;15.30;;;;;;;;;;748724;185;918284;-70
2021/04/27 04:21:43;;;;;;;29.37;14.20;;;;;;;;;;744373;184;919133;-71
2021/04/27 04:24:09;;;;;;;29.17;14.73;;;;;;;;;;740956;186;919372;-69
2021/04/27 04:26:37;;;;;;;35.80;15.75;;;;;;;;;;757084;182;919463;-70
2021/04/27 04:29:01;;;;;;;32.70;13.30;;;;;;;;;;753229;184;919680;-71
2021/04/27 04:31:27;;;;;;;30.83;14.10;;;;;;;;;;750164;182;919499;-71
2021/04/27 04:33:53;;;;;;;28.53;15.20;;;;;;;;;;742947;185;1248913;-70
2021/04/27 04:36:19;;;;;;;30.47;14.20;;;;;;;;;;756379;182;920908;-70
2021/04/27 04:38:45;;;;;;;29.90;13.07;;;;;;;;;;745260;182;919226;-70
2021/04/27 04:41:10;;;;;;;24.23;13.20;;;;;;;;;;750195;182;919548;-71
2021/04/27 04:43:36;;;;;;;18.37;10.07;;;;;;;;;;758110;182;885621;-72
2021/04/27 04:46:02;;;;;;;20.10;10.60;;;;;;;;;;752764;182;918058;-72
2021/04/27 04:48:28;;;;;;;31.62;14.55;;;;;;;;;;756170;182;919283;-71
2021/04/27 04:50:54;;;;;;;26.37;13.77;;;;;;;;;;762796;182;910927;-72
2021/04/27 04:53:20;;;;;;;32.47;15.43;;;;;;;;;;758480;182;904388;-71
2021/04/27 04:55:46;;;;;;;25.70;11.17;;;;;;;;;;752050;182;1364509;-73
2021/04/27 04:58:12;;;;;;;35.67;14.13;;;;;;;;;;759252;182;911350;-72
2021/04/27 05:00:38;;;;;;;29.23;13.73;;;;;;;;;;755801;184;917852;-73
2021/04/27 05:03:04;;;;;;;26.47;12.27;;;;;;;;;;751261;182;920923;-71
2021/04/27 05:05:30;;;;;;;28.93;14.07;;;;;;;;;;759719;182;921045;-71
2021/04/27 05:07:59;;;;;;;28.53;14.80;;;;;;;;;;749001;186;918612;-72
2021/04/27 05:10:22;;;;;;;27.87;12.70;;;;;;;;;;730561;190;915765;-72
2021/04/27 05:12:48;;;;;;;20.12;12.27;;;;;;;;;;759106;182;919637;-73
2021/04/27 05:15:14;;;;;;;33.53;15.00;;;;;;;;;;758568;182;915434;-75
2021/04/27 05:17:40;;;;;;;22.03;13.27;;;;;;;;;;744044;182;2269218;-69
2021/04/27 05:20:06;;;;;;;27.37;14.07;;;;;;;;;;758843;182;979993;-73
2021/04/27 05:22:32;;;;;;;30.80;16.90;;;;;;;;;;756252;182;915292;-76
2021/04/27 05:24:58;;;;;;;23.50;10.87;;;;;;;;;;757404;181;915606;-73
2021/04/27 05:27:24;;;;;;;26.90;12.50;;;;;;;;;;750670;185;919498;-73
2021/04/27 05:29:50;;;;;;;30.27;17.30;;;;;;;;;;743907;186;918891;-76
2021/04/27 05:32:16;;;;;;;29.87;14.97;;;;;;;;;;760981;182;918605;-75
2021/04/27 05:34:41;;;;;;;27.27;13.90;;;;;;;;;;763365;181;919114;-75
2021/04/27 05:37:07;;;;;;;23.10;15.83;;;;;;;;;;754697;182;920105;-73
2021/04/27 05:39:33;;;;;;;80.20;35.10;;;;;;;;;;761756;182;977938;-71
2021/04/27 05:41:59;;;;;;;29.70;15.80;;;;;;;;;;749658;182;1022220;-74
2021/04/27 05:44:25;;;;;;;36.33;16.07;;;;;;;;;;750216;185;916926;-75
2021/04/27 05:46:50;;;;;;;24.70;13.10;;;;;;;;;;750001;186;917389;-74
2021/04/27 05:49:16;;;;;;;35.50;15.40;;;;;;;;;;760034;182;917535;-75
2021/04/27 05:51:44;;;;;;;25.27;14.83;;;;;;;;;;747875;185;920264;-74
2021/04/27 05:54:10;;;;;;;26.83;15.70;;;;;;;;;;730760;188;919420;-72
2021/04/27 05:56:36;;;;;;;38.10;19.47;;;;;;;;;;752533;185;919032;-75
2021/04/27 05:59:01;;;;;;;36.25;14.98;;;;;;;;;;743053;186;915476;-72
2021/04/27 06:01:27;;;;;;;27.00;14.97;;;;;;;;;;753125;182;919512;-76
2021/04/27 06:03:53;;;;;;;29.53;14.73;;;;;;;;;;753763;182;1017413;-74
2021/04/27 06:06:19;;;;;;;24.52;13.30;;;;;;;;;;744704;186;919341;-75
2021/04/27 06:08:45;;;;;;;26.00;12.20;;;;;;;;;;755809;182;919605;-75
2021/04/27 06:11:11;;;;;;;31.20;12.37;;;;;;;;;;759951;182;877908;-73
2021/04/27 06:13:37;;;;;;;21.80;11.87;;;;;;;;;;749999;182;918025;-72
2021/04/27 06:16:03;;;;;;;29.73;13.93;;;;;;;;;;753103;181;1059052;-73
2021/04/27 06:18:29;;;;;;;29.20;13.47;;;;;;;;;;754805;181;915867;-72
2021/04/27 06:20:55;;;;;;;26.30;16.13;;;;;;;;;;748904;186;899781;-73
2021/04/27 06:23:20;;;;;;;27.87;12.00;;;;;;;;;;740702;184;1347134;-75
2021/04/27 06:25:46;;;;;;;20.62;10.90;;;;;;;;;;743762;184;918246;-73
2021/04/27 06:28:14;;;;;;;21.30;11.30;;;;;;;;;;760887;182;917925;-76
2021/04/27 06:30:38;;;;;;;27.90;13.20;;;;;;;;;;755362;182;918855;-72
2021/04/27 06:33:04;;;;;;;21.90;10.63;;;;;;;;;;758485;182;918751;-74
2021/04/27 06:35:30;;;;;;;22.53;14.27;;;;;;;;;;760139;182;918173;-72
2021/04/27 06:37:56;;;;;;;25.83;13.27;;;;;;;;;;754831;182;919308;-70
2021/04/27 06:40:21;;;;;;;21.90;10.00;;;;;;;;;;753348;182;917933;-72
2021/04/27 06:42:47;;;;;;;24.90;13.40;;;;;;;;;;757664;182;921103;-74
2021/04/27 06:45:14;;;;;;;15.33;6.67;;;;;;;;;;753488;181;899402;-71
2021/04/27 06:47:40;;;;;;;20.30;11.23;;;;;;;;;;742860;185;920197;-72
2021/04/27 06:50:06;;;;;;;16.60;9.00;;;;;;;;;;740632;185;929604;-71
2021/04/27 06:52:32;;;;;;;22.37;12.67;;;;;;;;;;745898;186;1134593;-73
2021/04/27 06:54:58;;;;;;;24.50;11.37;;;;;;;;;;744388;185;919080;-72
2021/04/27 06:57:24;;;;;;;19.33;11.73;;;;;;;;;;748849;182;919571;-71
2021/04/27 06:59:50;;;;;;;22.93;13.20;;;;;;;;;;757332;182;921579;-74
2021/04/27 07:02:15;;;;;;;19.07;13.67;;;;;;;;;;755141;182;919544;-71
2021/04/27 07:04:41;;;;;;;21.90;11.07;;;;;;;;;;752642;181;918637;-74
2021/04/27 07:07:07;;;;;;;23.50;13.43;;;;;;;;;;753224;184;919480;-71
2021/04/27 07:09:33;;;;;;;26.02;12.23;;;;;;;;;;756858;182;941838;-71
2021/04/27 07:11:59;;;;;;;27.87;12.20;;;;;;;;;;741430;185;989571;-73
2021/04/27 07:14:25;;;;;;;19.60;12.47;;;;;;;;;;747774;184;918386;-73
2021/04/27 07:16:50;;;;;;;23.43;11.30;;;;;;;;;;759935;182;919505;-73
2021/04/27 07:19:16;;;;;;;21.67;10.27;;;;;;;;;;759338;181;630199;-72
2021/04/27 07:21:42;;;;;;;23.47;9.67;;;;;;;;;;757080;182;628841;-72
2021/04/27 07:24:08;;;;;;;18.80;9.93;;;;;;;;;;761930;182;915838;-73
2021/04/27 07:26:34;;;;;;;25.03;9.00;;;;;;;;;;759911;182;621762;-70
2021/04/27 07:29:00;;;;;;;21.57;10.03;;;;;;;;;;745475;186;1599586;-71
2021/04/27 07:31:26;;;;;;;30.67;9.87;;;;;;;;;;764261;182;639203;-72
2021/04/27 07:33:52;;;;;;;15.93;9.87;;;;;;;;;;756400;182;619297;-74
2021/04/27 07:36:18;;;;;;;15.80;8.10;;;;;;;;;;755262;182;638847;-72
2021/04/27 07:38:44;;;;;;;10.50;6.00;;;;;;;;;;759201;182;633956;-72
2021/04/27 07:41:09;;;;;;;11.90;5.77;;;;;;;;;;755354;182;701504;-69
2021/04/27 07:43:36;;;;;;;8.13;4.87;;;;;;;;;;734655;187;919048;-74
2021/04/27 07:46:02;;;;;;;10.40;6.47;;;;;;;;;;742401;185;918033;-68
2021/04/27 07:48:28;;;;;;;12.90;5.40;;;;;;;;;;749276;185;848375;-70
2021/04/27 07:50:53;;;;;;;11.50;4.87;;;;;;;;;;742820;185;916888;-73
2021/04/27 07:53:19;;;;;;;7.10;4.10;;;;;;;;;;741629;185;921832;-69
2021/04/27 07:55:45;;;;;;;16.27;7.57;;;;;;;;;;747613;186;917820;-71
2021/04/27 07:58:11;;;;;;;10.18;5.12;;;;;;;;;;748766;186;919017;-69
2021/04/27 08:00:37;;;;;;;15.57;6.30;;;;;;;;;;742669;185;918829;-71
2021/04/27 08:03:03;;;;;;;19.53;7.13;;;;;;;;;;739750;186;918486;-73
2021/04/27 08:05:28;;;;;;;7.20;4.57;;;;;;;;;;754855;185;915111;-74
2021/04/27 08:07:55;;;;;;;17.97;6.63;;;;;;;;;;741013;186;919163;-69
2021/04/27 08:10:20;;;;;;;16.67;6.63;;;;;;;;;;748102;186;917741;-69
2021/04/27 08:12:46;;;;;;;12.73;5.07;;;;;;;;;;741936;186;916840;-70
2021/04/27 08:15:13;;;;;;;9.97;5.90;;;;;;;;;;755862;182;919293;-72
2021/04/27 08:17:38;;;;;;;8.77;5.75;;;;;;;;;;750860;182;1453119;-70
2021/04/27 08:20:05;;;;;;;12.40;6.60;;;;;;;;;;759996;182;918910;-72
2021/04/27 08:22:31;;;;;;;16.60;5.57;;;;;;;;;;755880;182;920294;-72
2021/04/27 08:24:57;;;;;;;12.33;6.07;;;;;;;;;;758468;181;919088;-74
2021/04/27 08:27:23;;;;;;;11.63;7.07;;;;;;;;;;755771;182;919442;-71
2021/04/27 08:29:48;;;;;;;10.30;6.00;;;;;;;;;;754259;183;919981;-70
2021/04/27 08:32:14;;;;;;;10.23;5.80;;;;;;;;;;754257;183;919250;-70
2021/04/27 08:34:40;;;;;;;13.47;7.63;;;;;;;;;;754044;182;915341;-70
2021/04/27 08:37:06;;;;;;;10.07;6.70;;;;;;;;;;762541;181;917301;-70
2021/04/27 08:39:32;;;;;;;14.00;7.47;;;;;;;;;;756166;182;927817;-69
2021/04/27 08:41:58;;;;;;;12.45;7.00;;;;;;;;;;754474;182;929990;-71
2021/04/27 08:44:24;;;;;;;22.48;7.05;;;;;;;;;;756737;182;919122;-72
2021/04/27 08:46:50;;;;;;;9.57;6.43;;;;;;;;;;754976;182;919774;-70
2021/04/27 08:49:16;;;;;;;12.90;7.77;;;;;;;;;;748404;182;919029;-71
2021/04/27 08:51:41;;;;;;;11.07;5.03;;;;;;;;;;756245;182;919434;-71
2021/04/27 08:54:07;;;;;;;11.73;7.03;;;;;;;;;;750353;182;918529;-71
2021/04/27 08:56:33;;;;;;;19.75;7.05;;;;;;;;;;753882;182;918871;-71
2021/04/27 08:59:00;;;;;;;12.50;5.90;;;;;;;;;;754376;182;1229801;-71
2021/04/27 09:01:26;;;;;;;9.80;4.97;;;;;;;;;;763211;182;919188;-70
2021/04/27 09:03:52;;;;;;;9.60;6.43;;;;;;;;;;757070;182;918658;-69
2021/04/27 09:06:18;;;;;;;15.90;7.57;;;;;;;;;;756044;182;919323;-70
2021/04/27 09:08:43;;;;;;;8.97;6.07;;;;;;;;;;762911;182;906123;-72
2021/04/27 09:11:15;;;;;;;17.63;7.37;;;;;;;;;;747014;182;918735;-71
2021/04/27 09:13:41;;;;;;;8.80;6.27;;;;;;;;;;752587;182;1473921;-71
2021/04/27 09:16:07;;;;;;;15.13;6.50;;;;;;;;;;752573;182;919446;-70
2021/04/27 09:18:33;;;;;;;21.83;7.60;;;;;;;;;;760289;182;918331;-70
2021/04/27 09:21:05;;;;;;;9.73;5.37;;;;;;;;;;753591;181;919790;-72
2021/04/27 09:23:31;;;;;;;11.90;7.00;;;;;;;;;;757390;182;918372;-69
2021/04/27 09:26:02;;;;;;;16.80;6.40;;;;;;;;;;757836;184;918979;-69
2021/04/27 09:28:32;;;;;;;13.77;6.97;;;;;;;;;;757076;185;1081539;-67
2021/04/27 09:30:58;;;;;;;12.57;6.47;;;;;;;;;;744653;185;976295;-71
2021/04/27 09:33:25;;;;;;;19.83;8.20;;;;;;;;;;746930;185;917649;-67
2021/04/27 09:35:50;;;;;;;10.60;7.00;;;;;;;;;;745628;185;920227;-70
2021/04/27 09:38:16;;;;;;;11.27;5.43;;;;;;;;;;754343;182;921107;-72
2021/04/27 09:40:44;;;;;;;10.07;6.03;;;;;;;;;;756330;181;919453;-73
2021/04/27 09:43:10;;;;;;;14.53;6.30;;;;;;;;;;752938;185;914398;-68
2021/04/27 09:45:41;;;;;;;11.90;6.00;;;;;;;;;;763276;182;919484;-69
2021/04/27 09:48:07;;;;;;;10.20;5.70;;;;;;;;;;750745;182;1201786;-73
2021/04/27 09:50:33;;;;;;;8.85;5.30;;;;;;;;;;754809;182;920023;-67
2021/04/27 09:52:59;;;;;;;8.00;5.73;;;;;;;;;;757262;182;918995;-70
2021/04/27 09:55:25;;;;;;;5.20;3.97;;;;;;;;;;754098;182;949008;-72
2021/04/27 09:57:50;;;;;;;9.60;5.07;;;;;;;;;;738480;186;1017927;-71
2021/04/27 10:00:21;;;;;;;9.73;5.30;;;;;;;;;;745953;184;920317;-70
2021/04/27 10:02:47;;;;;;;9.97;5.40;;;;;;;;;;751487;184;918219;-71
2021/04/27 10:05:13;;;;;;;13.67;5.80;;;;;;;;;;743139;185;915182;-72
2021/04/27 10:07:39;;;;;;;7.20;5.28;;;;;;;;;;738877;185;1163131;-73
2021/04/27 10:10:05;;;;;;;24.27;7.13;;;;;;;;;;771051;181;811954;-73
2021/04/27 10:12:31;;;;;;;9.13;5.20;;;;;;;;;;751567;182;1622497;-70
2021/04/27 10:14:57;;;;;;;10.60;5.10;;;;;;;;;;755908;182;919230;-72
2021/04/27 10:17:23;;;;;;;9.50;6.00;;;;;;;;;;762819;181;918547;-71
2021/04/27 10:19:49;;;;;;;13.82;5.10;;;;;;;;;;754474;182;899060;-71
2021/04/27 10:22:14;;;;;;;6.70;4.50;;;;;;;;;;752472;182;920497;-72
2021/04/27 10:24:40;;;;;;;7.80;5.43;;;;;;;;;;753650;182;918688;-70
2021/04/27 10:27:06;;;;;;;13.73;4.87;;;;;;;;;;760566;182;919027;-72
2021/04/27 10:29:32;;;;;;;7.77;4.87;;;;;;;;;;742230;185;919368;-72
2021/04/27 10:32:04;;;;;;;7.77;4.43;;;;;;;;;;754575;182;919440;-72
2021/04/27 10:34:29;;;;;;;5.57;3.67;;;;;;;;;;751913;181;933451;-71
2021/04/27 10:37:10;;;;;;;8.23;4.23;;;;;;;;;;742759;186;919879;-69
2021/04/27 10:39:36;;;;;;;13.57;6.13;;;;;;;;;;756414;181;916256;-72
2021/04/27 10:42:08;;;;;;;7.93;4.57;;;;;;;;;;754947;182;915720;-72
2021/04/27 10:44:33;;;;;;;7.50;4.20;;;;;;;;;;753737;182;916278;-69
2021/04/27 10:47:02;;;;;;;12.13;5.20;;;;;;;;;;758958;182;915759;-70
2021/04/27 10:49:27;;;;;;;6.90;4.20;;;;;;;;;;750867;182;1017373;-70
2021/04/27 10:51:53;;;;;;;8.10;4.57;;;;;;;;;;751566;182;918883;-72
2021/04/27 10:54:20;;;;;;;6.73;4.63;;;;;;;;;;745844;185;1333654;-69
2021/04/27 10:56:48;;;;;;;9.45;5.05;;;;;;;;;;743606;186;911047;-73
2021/04/27 10:59:15;;;;;;;8.50;5.10;;;;;;;;;;751365;182;919184;-71
2021/04/27 11:01:42;;;;;;;6.03;4.07;;;;;;;;;;756239;182;918667;-71
2021/04/27 11:04:08;;;;;;;8.30;4.75;;;;;;;;;;753899;182;1660317;-70
2021/04/27 11:06:34;;;;;;;7.30;5.50;;;;;;;;;;758319;182;641465;-72
2021/04/27 11:09:06;;;;;;;7.53;4.03;;;;;;;;;;757417;182;919197;-73
2021/04/27 11:11:32;;;;;;;6.97;4.57;;;;;;;;;;755628;182;918834;-71
2021/04/27 11:14:03;;;;;;;8.83;4.90;;;;;;;;;;759910;183;614456;-70
2021/04/27 11:16:29;;;;;;;8.40;3.90;;;;;;;;;;745910;185;1246253;-71
2021/04/27 11:19:11;;;;;;;8.80;5.57;;;;;;;;;;747744;184;919243;-71
2021/04/27 11:21:36;;;;;;;13.53;5.87;;;;;;;;;;755689;182;919311;-70
2021/04/27 11:24:07;;;;;;;7.03;5.20;;;;;;;;;;761071;182;919857;-71
2021/04/27 11:26:39;;;;;;;10.60;5.60;;;;;;;;;;748545;182;930929;-71
2021/04/27 11:29:06;;;;;;;7.23;4.23;;;;;;;;;;752074;185;919747;-71
2021/04/27 11:31:32;;;;;;;12.73;5.37;;;;;;;;;;742628;186;919018;-71
2021/04/27 11:33:58;;;;;;;6.87;4.57;;;;;;;;;;752754;182;919553;-71
2021/04/27 11:36:42;;;;;;;9.20;5.90;;;;;;;;;;752053;181;919211;-72
2021/04/27 11:39:09;;;;;;;10.27;4.83;;;;;;;;;;755561;181;919162;-71
2021/04/27 11:41:40;;;;;;;7.80;4.33;;;;;;;;;;753965;182;895683;-69
2021/04/27 11:44:06;;;;;;;10.07;3.87;;;;;;;;;;754330;182;919068;-72
2021/04/27 11:46:32;;;;;;;6.90;4.70;;;;;;;;;;759574;182;915264;-71
2021/04/27 11:48:58;;;;;;;10.37;6.17;;;;;;;;;;755209;181;918503;-71
2021/04/27 11:51:24;;;;;;;7.37;4.77;;;;;;;;;;755410;182;918823;-73
2021/04/27 11:53:56;;;;;;;10.38;5.40;;;;;;;;;;763585;182;917915;-70
2021/04/27 11:56:21;;;;;;;10.47;5.27;;;;;;;;;;742760;187;917663;-71
2021/04/27 11:58:47;;;;;;;7.18;5.07;;;;;;;;;;751863;185;919152;-72
2021/04/27 12:01:16;;;;;;;9.10;4.97;;;;;;;;;;740959;185;1013843;-74
2021/04/27 12:03:40;;;;;;;9.87;5.03;;;;;;;;;;754301;185;822917;-72
2021/04/27 12:06:15;;;;;;;7.43;4.70;;;;;;;;;;743988;186;915695;-70
2021/04/27 12:08:43;;;;;;;7.13;5.00;;;;;;;;;;758321;182;919158;-71
2021/04/27 12:11:11;;;;;;;9.80;4.83;;;;;;;;;;756197;182;901488;-71
2021/04/27 12:13:37;;;;;;;7.00;4.33;;;;;;;;;;757646;183;918458;-71
2021/04/27 12:16:04;;;;;;;6.87;4.53;;;;;;;;;;755086;183;919445;-72
2021/04/27 12:18:30;;;;;;;8.57;4.50;;;;;;;;;;750679;182;930112;-72
2021/04/27 12:20:56;;;;;;;12.13;4.10;;;;;;;;;;759465;182;919308;-72
2021/04/27 12:23:22;;;;;;;10.13;5.37;;;;;;;;;;752282;181;919934;-72
2021/04/27 12:25:47;;;;;;;13.90;5.73;;;;;;;;;;751708;182;925472;-72
2021/04/27 12:28:13;;;;;;;11.33;5.70;;;;;;;;;;751649;182;919478;-68
2021/04/27 12:30:39;;;;;;;7.40;5.03;;;;;;;;;;761358;182;910014;-71
2021/04/27 12:33:10;;;;;;;12.30;5.50;;;;;;;;;;755424;180;1328077;-69
2021/04/27 12:35:32;;;;;;;6.20;4.07;;;;;;;;;;761401;182;627197;-70
2021/04/27 12:37:59;;;;;;;12.50;5.57;;;;;;;;;;761514;182;633255;-70
2021/04/27 12:40:24;;;;;;;14.27;5.30;;;;;;;;;;760068;182;617776;-70
2021/04/27 12:42:50;;;;;;;14.47;5.90;;;;;;;;;;754883;182;1441049;-71
2021/04/27 12:45:16;;;;;;;12.20;5.63;;;;;;;;;;761147;182;918694;-71
2021/04/27 12:47:42;;;;;;;9.83;5.13;;;;;;;;;;757521;182;918431;-71
2021/04/27 12:50:08;;;;;;;10.17;5.20;;;;;;;;;;752491;182;920849;-71
2021/04/27 12:52:35;;;;;;;10.50;5.90;;;;;;;;;;756829;181;915549;-69
2021/04/27 12:55:02;;;;;;;9.90;5.27;;;;;;;;;;763458;181;912611;-67
2021/04/27 12:57:27;;;;;;;23.33;6.43;;;;;;;;;;756193;182;916015;-69
2021/04/27 12:59:54;;;;;;;14.80;5.10;;;;;;;;;;751871;182;916066;-71
2021/04/27 13:02:20;;;;;;;6.70;4.10;;;;;;;;;;762601;182;919424;-71
2021/04/27 13:04:46;;;;;;;14.53;6.37;;;;;;;;;;750325;182;919229;-70
2021/04/27 13:07:17;;;;;;;7.37;4.43;;;;;;;;;;753943;183;628770;-73
2021/04/27 13:09:43;;;;;;;8.23;5.43;;;;;;;;;;756714;182;628646;-71
2021/04/27 13:12:09;;;;;;;9.40;5.63;;;;;;;;;;751719;186;614027;-69
2021/04/27 13:14:36;;;;;;;11.90;5.80;;;;;;;;;;729425;189;622517;-69
2021/04/27 13:17:01;;;;;;;10.00;6.10;;;;;;;;;;759649;182;633884;-69
2021/04/27 13:19:27;;;;;;;9.27;5.25;;;;;;;;;;758490;181;919254;-71
2021/04/27 13:21:59;;;;;;;13.90;6.63;;;;;;;;;;749494;181;919754;-71
2021/04/27 13:24:24;;;;;;;9.60;4.87;;;;;;;;;;750753;181;922002;-71
2021/04/27 13:26:56;;;;;;;9.47;5.70;;;;;;;;;;752444;182;919658;-70
2021/04/27 13:29:22;;;;;;;14.23;5.13;;;;;;;;;;761036;182;919382;-72
2021/04/27 13:31:48;;;;;;;7.90;5.70;;;;;;;;;;751839;182;1023049;-70
2021/04/27 13:34:13;;;;;;;8.20;5.80;;;;;;;;;;756633;181;918907;-71
2021/04/27 13:36:39;;;;;;;13.03;6.30;;;;;;;;;;752736;183;918685;-71
2021/04/27 13:39:05;;;;;;;16.73;6.00;;;;;;;;;;757163;182;920496;-75
2021/04/27 13:41:37;;;;;;;12.07;4.80;;;;;;;;;;753425;182;922022;-71
2021/04/27 13:43:59;;;;;;;15.90;7.17;;;;;;;;;;757283;182;915665;-70
2021/04/27 13:46:24;;;;;;;7.40;4.65;;;;;;;;;;757608;182;919466;-73
2021/04/27 13:48:49;;;;;;;10.50;5.63;;;;;;;;;;758086;182;919421;-71
2021/04/27 13:51:14;;;;;;;9.67;5.77;;;;;;;;;;752815;182;1062979;-70
2021/04/27 13:53:40;;;;;;;11.90;6.23;;;;;;;;;;748106;185;918891;-72
2021/04/27 13:56:06;;;;;;;9.33;5.60;;;;;;;;;;752006;181;918713;-72
2021/04/27 13:58:32;;;;;;;11.60;5.10;;;;;;;;;;756734;181;919724;-70
2021/04/27 14:00:58;;;;;;;14.83;6.10;;;;;;;;;;757113;182;886800;-71
2021/04/27 14:03:24;;;;;;;11.33;6.20;;;;;;;;;;745339;186;1020000;-71
2021/04/27 14:05:50;;;;;;;11.57;5.83;;;;;;;;;;754233;182;919311;-73